createdAt,value
2022-09-11T00:02:17.267Z,80.82
2022-09-11T00:04:46.011Z,80.62
2022-09-11T00:08:33.799Z,80.54
2022-09-11T00:11:10.461Z,80.71
2022-09-11T00:13:42.130Z,80.64
2022-09-11T00:16:34.515Z,80.75
2022-09-11T00:19:09.249Z,80.82
2022-09-11T00:21:40.577Z,80.64
2022-09-11T00:24:10.670Z,80.85
2022-09-11T00:26:42.869Z,80.65
2022-09-11T00:29:12.264Z,80.77
2022-09-11T00:31:44.320Z,80.76
2022-09-11T00:34:13.300Z,80.81
2022-09-11T00:36:44.701Z,80.73
2022-09-11T00:39:14.802Z,80.66
2022-09-11T00:41:46.504Z,80.44
2022-09-11T00:44:35.445Z,80.57
2022-09-11T00:47:12.046Z,80.60
2022-09-11T00:49:51.635Z,80.76
2022-09-11T00:52:36.836Z,80.72
2022-09-11T00:55:08.373Z,80.75
2022-09-11T00:57:52.482Z,80.69
2022-09-11T01:00:23.966Z,80.57
2022-09-11T01:02:55.403Z,80.65
2022-09-11T01:06:29.384Z,80.55
2022-09-11T01:08:59.861Z,80.91
2022-09-11T01:12:07.405Z,80.76
2022-09-11T01:14:56.536Z,80.71
2022-09-11T01:17:38.252Z,80.61
2022-09-11T01:20:25.655Z,80.65
2022-09-11T01:23:33.517Z,80.68
2022-09-11T01:26:12.457Z,80.84
2022-09-11T01:28:52.427Z,80.87
2022-09-11T01:31:27.314Z,81.02
2022-09-11T01:34:06.405Z,80.90
2022-09-11T01:36:45.517Z,80.89
2022-09-11T01:39:22.860Z,80.95
2022-09-11T01:42:04.202Z,80.94
2022-09-11T01:44:42.160Z,80.81
2022-09-11T01:47:13.199Z,80.86
2022-09-11T01:50:15.400Z,80.82
2022-09-11T01:53:06.441Z,80.91
2022-09-11T01:55:45.980Z,80.88
2022-09-11T01:58:32.171Z,80.89
2022-09-11T02:01:18.786Z,80.96
2022-09-11T02:04:09.101Z,80.83
2022-09-11T02:06:59.702Z,81.10
2022-09-11T02:09:37.868Z,81.06
2022-09-11T02:12:11.791Z,81.09
2022-09-11T02:14:48.933Z,80.88
2022-09-11T02:17:26.534Z,80.96
2022-09-11T02:20:00.142Z,81.00
2022-09-11T02:22:31.430Z,80.92
2022-09-11T02:25:03.377Z,81.00
2022-09-11T02:27:34.042Z,81.01
2022-09-11T02:30:03.289Z,80.83
2022-09-11T02:32:38.004Z,80.98
2022-09-11T02:35:08.680Z,81.18
2022-09-11T02:38:11.976Z,80.90
2022-09-11T02:40:47.840Z,81.00
2022-09-11T02:43:23.129Z,81.01
2022-09-11T02:46:24.394Z,81.25
2022-09-11T02:49:21.757Z,81.09
2022-09-11T02:52:18.884Z,81.15
2022-09-11T02:55:08.492Z,81.27
2022-09-11T02:58:07.874Z,80.97
2022-09-11T03:00:38.079Z,80.99
2022-09-11T03:03:07.974Z,80.95
2022-09-11T03:05:40.814Z,80.93
2022-09-11T03:08:10.298Z,80.86
2022-09-11T03:10:40.351Z,81.04
2022-09-11T03:13:11.202Z,80.90
2022-09-11T03:15:44.022Z,80.94
2022-09-11T03:18:16.989Z,81.04
2022-09-11T03:20:50.177Z,80.97
2022-09-11T03:23:19.735Z,80.68
2022-09-11T03:25:51.923Z,81.05
2022-09-11T03:28:23.128Z,80.98
2022-09-11T03:30:55.634Z,80.79
2022-09-11T03:33:26.804Z,81.06
2022-09-11T03:35:55.360Z,80.99
2022-09-11T03:38:24.936Z,81.11
2022-09-11T03:40:55.736Z,80.99
2022-09-11T03:43:25.600Z,80.85
2022-09-11T03:45:56.190Z,80.89
2022-09-11T03:48:28.148Z,80.91
2022-09-11T03:50:58.175Z,80.90
2022-09-11T03:53:28.874Z,80.87
2022-09-11T03:56:01.551Z,80.82
2022-09-11T03:58:32.363Z,80.70
2022-09-11T04:01:08.402Z,81.12
2022-09-11T04:03:39.595Z,80.83
2022-09-11T04:06:12.592Z,81.05
2022-09-11T04:08:42.861Z,80.77
2022-09-11T04:11:16.337Z,80.80
2022-09-11T04:13:46.560Z,81.02
2022-09-11T04:16:19.418Z,80.95
2022-09-11T04:18:54.676Z,81.05
2022-09-11T04:21:24.865Z,80.90
2022-09-11T04:23:56.968Z,81.05
2022-09-11T04:26:31.815Z,80.93
2022-09-11T04:29:14.878Z,80.88
2022-09-11T04:31:46.244Z,80.96
2022-09-11T04:34:16.069Z,80.95
2022-09-11T04:36:46.842Z,81.15
2022-09-11T04:39:23.301Z,81.12
2022-09-11T04:41:54.932Z,81.08
2022-09-11T04:44:26.808Z,81.01
2022-09-11T04:46:59.599Z,81.00
2022-09-11T04:49:30.358Z,80.95
2022-09-11T04:52:06.286Z,81.00
2022-09-11T04:54:36.000Z,80.96
2022-09-11T04:57:09.570Z,81.08
2022-09-11T04:59:43.628Z,81.06
2022-09-11T05:02:15.743Z,80.87
2022-09-11T05:04:50.479Z,80.92
2022-09-11T05:07:19.659Z,80.69
2022-09-11T05:09:50.267Z,80.56
2022-09-11T05:12:22.010Z,80.57
2022-09-11T05:14:53.577Z,80.81
2022-09-11T05:17:24.482Z,80.59
2022-09-11T05:19:56.467Z,80.70
2022-09-11T05:22:26.479Z,80.85
2022-09-11T05:24:58.762Z,80.88
2022-09-11T05:27:28.191Z,80.92
2022-09-11T05:30:01.148Z,80.82
2022-09-11T05:32:31.584Z,80.92
2022-09-11T05:35:01.862Z,80.83
2022-09-11T05:37:30.854Z,80.61
2022-09-11T05:40:02.286Z,80.89
2022-09-11T05:42:32.029Z,80.85
2022-09-11T05:45:04.092Z,80.93
2022-09-11T05:47:34.383Z,80.70
2022-09-11T05:50:03.663Z,80.77
2022-09-11T05:52:35.334Z,80.60
2022-09-11T05:55:05.047Z,80.64
2022-09-11T05:57:37.017Z,80.68
2022-09-11T06:00:06.521Z,80.58
2022-09-11T06:02:39.906Z,80.57
2022-09-11T06:05:09.521Z,80.34
2022-09-11T06:07:39.833Z,80.32
2022-09-11T06:10:09.432Z,80.23
2022-09-11T06:12:39.204Z,80.44
2022-09-11T06:15:24.934Z,80.41
2022-09-11T06:18:00.199Z,80.44
2022-09-11T06:20:30.640Z,80.59
2022-09-11T06:23:02.637Z,80.51
2022-09-11T06:25:37.361Z,80.60
2022-09-11T06:28:07.051Z,80.52
2022-09-11T06:30:36.740Z,80.56
2022-09-11T06:33:05.571Z,80.48
2022-09-11T06:35:36.251Z,80.29
2022-09-11T06:38:07.740Z,80.19
2022-09-11T06:40:39.167Z,80.29
2022-09-11T06:43:09.370Z,79.97
2022-09-11T06:45:41.659Z,80.10
2022-09-11T06:48:12.908Z,80.14
2022-09-11T06:50:44.966Z,80.03
2022-09-11T06:53:16.148Z,80.05
2022-09-11T06:55:54.428Z,80.24
2022-09-11T06:58:25.917Z,80.17
2022-09-11T07:00:57.973Z,79.99
2022-09-11T07:03:28.519Z,79.82
2022-09-11T07:07:12.898Z,80.04
2022-09-11T07:09:44.637Z,79.76
2022-09-11T07:12:15.108Z,79.75
2022-09-11T07:14:46.661Z,79.81
2022-09-11T07:17:19.285Z,79.64
2022-09-11T07:19:50.008Z,79.80
2022-09-11T07:22:20.164Z,79.46
2022-09-11T07:24:53.012Z,79.48
2022-09-11T07:27:22.326Z,79.41
2022-09-11T07:29:54.373Z,79.55
2022-09-11T07:32:23.129Z,79.38
2022-09-11T07:34:51.853Z,79.02
2022-09-11T07:37:20.537Z,79.08
2022-09-11T07:39:49.433Z,79.19
2022-09-11T07:42:21.067Z,79.04
2022-09-11T07:44:51.106Z,78.94
2022-09-11T07:47:19.932Z,78.94
2022-09-11T07:49:51.518Z,78.61
2022-09-11T07:52:20.970Z,78.68
2022-09-11T07:54:52.966Z,78.49
2022-09-11T07:57:26.255Z,78.60
2022-09-11T07:59:59.326Z,78.66
2022-09-11T08:02:28.785Z,78.63
2022-09-11T08:04:58.564Z,78.70
2022-09-11T08:07:32.687Z,78.53
2022-09-11T08:10:26.167Z,78.28
2022-09-11T08:12:58.063Z,78.19
2022-09-11T08:15:30.104Z,78.09
2022-09-11T08:17:59.646Z,78.22
2022-09-11T08:20:32.843Z,78.12
2022-09-11T08:23:02.265Z,77.86
2022-09-11T08:25:37.435Z,77.51
2022-09-11T08:28:07.660Z,77.26
2022-09-11T08:30:40.996Z,76.71
2022-09-11T08:33:13.213Z,76.50
2022-09-11T08:35:47.191Z,76.06
2022-09-11T08:38:16.744Z,75.20
2022-09-11T08:40:47.500Z,74.70
2022-09-11T08:43:32.827Z,73.71
2022-09-11T08:46:09.687Z,73.63
2022-09-11T08:49:00.431Z,73.20
2022-09-11T08:51:29.032Z,73.28
2022-09-11T08:54:02.912Z,73.19
2022-09-11T08:56:36.578Z,72.61
2022-09-11T08:59:35.648Z,72.05
2022-09-11T09:02:24.258Z,71.26
2022-09-11T09:05:06.621Z,71.05
2022-09-11T09:07:51.944Z,71.56
2022-09-11T09:10:26.974Z,71.85
2022-09-11T09:13:10.470Z,72.08
2022-09-11T09:15:49.476Z,72.65
2022-09-11T09:18:21.461Z,72.92
2022-09-11T09:21:15.968Z,73.07
2022-09-11T09:23:58.113Z,73.00
2022-09-11T09:26:38.184Z,73.20
2022-09-11T09:29:38.239Z,72.99
2022-09-11T09:32:21.538Z,72.59
2022-09-11T09:34:55.827Z,72.70
2022-09-11T09:37:27.021Z,72.24
2022-09-11T09:40:01.348Z,72.55
2022-09-11T09:43:13.182Z,72.60
2022-09-11T09:46:01.508Z,72.06
2022-09-11T09:48:46.769Z,72.14
2022-09-11T09:51:24.976Z,71.58
2022-09-11T09:54:01.817Z,70.86
2022-09-11T09:56:35.287Z,70.48
2022-09-11T09:59:18.578Z,69.47
2022-09-11T10:01:51.217Z,69.80
2022-09-11T10:04:24.666Z,69.56
2022-09-11T10:07:23.060Z,68.97
2022-09-11T10:10:03.775Z,69.28
2022-09-11T10:12:33.917Z,69.13
2022-09-11T10:15:05.812Z,69.35
2022-09-11T10:17:38.907Z,68.57
2022-09-11T10:20:18.898Z,67.05
2022-09-11T10:22:49.198Z,65.85
2022-09-11T10:25:27.047Z,64.76
2022-09-11T10:28:09.430Z,64.25
2022-09-11T10:30:45.369Z,64.36
2022-09-11T10:33:37.484Z,64.11
2022-09-11T10:36:10.347Z,64.64
2022-09-11T10:38:45.304Z,64.78
2022-09-11T10:41:25.508Z,64.76
2022-09-11T10:44:14.670Z,64.79
2022-09-11T10:46:47.634Z,64.45
2022-09-11T10:49:22.489Z,63.67
2022-09-11T10:52:22.655Z,63.61
2022-09-11T10:55:06.800Z,63.72
2022-09-11T10:57:48.007Z,63.75
2022-09-11T11:00:25.822Z,63.53
2022-09-11T11:03:11.425Z,62.88
2022-09-11T11:06:33.106Z,62.98
2022-09-11T11:09:35.405Z,62.66
2022-09-11T11:12:11.247Z,62.08
2022-09-11T11:15:17.778Z,61.61
2022-09-11T11:18:12.911Z,61.64
2022-09-11T11:20:54.674Z,61.88
2022-09-11T11:23:24.659Z,61.70
2022-09-11T11:26:08.156Z,61.09
2022-09-11T11:28:59.075Z,60.35
2022-09-11T11:31:46.089Z,60.36
2022-09-11T11:34:44.736Z,60.39
2022-09-11T11:37:21.760Z,60.03
2022-09-11T11:40:10.566Z,59.62
2022-09-11T11:42:55.896Z,58.81
2022-09-11T11:45:38.223Z,58.40
2022-09-11T11:48:38.878Z,58.31
2022-09-11T11:51:10.993Z,57.40
2022-09-11T11:54:01.461Z,57.21
2022-09-11T11:56:50.764Z,56.50
2022-09-11T11:59:33.188Z,56.83
2022-09-11T12:02:10.409Z,56.01
2022-09-11T12:04:43.492Z,56.26
2022-09-11T12:07:26.124Z,56.28
2022-09-11T12:09:58.382Z,55.57
2022-09-11T12:12:34.355Z,55.72
2022-09-11T12:15:12.094Z,54.51
2022-09-11T12:17:44.300Z,54.26
2022-09-11T12:20:17.528Z,54.05
2022-09-11T12:22:50.502Z,54.30
2022-09-11T12:25:19.420Z,53.73
2022-09-11T12:27:50.763Z,53.06
2022-09-11T12:30:22.062Z,53.12
2022-09-11T12:33:00.494Z,53.12
2022-09-11T12:35:45.619Z,53.23
2022-09-11T12:38:28.911Z,53.31
2022-09-11T12:41:07.803Z,53.28
2022-09-11T12:43:36.511Z,53.06
2022-09-11T12:46:28.511Z,52.99
2022-09-11T12:49:27.886Z,52.48
2022-09-11T12:52:01.910Z,52.62
2022-09-11T12:54:41.474Z,52.52
2022-09-11T12:57:35.709Z,52.06
2022-09-11T13:00:11.809Z,51.74
2022-09-11T13:02:47.106Z,51.82
2022-09-11T13:05:26.526Z,51.63
2022-09-11T13:08:01.250Z,51.48
2022-09-11T13:10:37.963Z,51.06
2022-09-11T13:13:33.533Z,50.94
2022-09-11T13:16:37.547Z,50.74
2022-09-11T13:19:15.252Z,50.86
2022-09-11T13:21:46.195Z,50.88
2022-09-11T13:24:28.182Z,50.27
2022-09-11T13:27:03.528Z,49.74
2022-09-11T13:29:43.817Z,49.99
2022-09-11T13:32:18.039Z,50.06
2022-09-11T13:34:58.234Z,49.58
2022-09-11T13:37:32.699Z,49.63
2022-09-11T13:40:05.413Z,49.73
2022-09-11T13:42:36.754Z,49.45
2022-09-11T13:45:08.915Z,49.45
2022-09-11T13:47:41.652Z,49.27
2022-09-11T13:50:16.051Z,49.32
2022-09-11T13:52:46.474Z,49.19
2022-09-11T13:55:23.114Z,48.96
2022-09-11T13:58:03.347Z,49.01
2022-09-11T14:00:43.273Z,48.73
2022-09-11T14:03:21.151Z,48.47
2022-09-11T14:05:57.291Z,48.68
2022-09-11T14:08:29.187Z,48.38
2022-09-11T14:11:08.089Z,48.27
2022-09-11T14:13:49.154Z,48.29
2022-09-11T14:16:31.827Z,48.22
2022-09-11T14:19:14.514Z,48.27
2022-09-11T14:21:47.020Z,48.05
2022-09-11T14:25:03.115Z,47.92
2022-09-11T14:27:37.705Z,47.92
2022-09-11T14:30:34.797Z,48.02
2022-09-11T14:33:17.894Z,47.85
2022-09-11T14:35:49.816Z,47.76
2022-09-11T14:38:21.523Z,47.76
2022-09-11T14:40:58.932Z,47.76
2022-09-11T14:43:33.008Z,47.92
2022-09-11T14:46:03.618Z,48.04
2022-09-11T14:48:35.533Z,47.96
2022-09-11T14:51:11.255Z,47.92
2022-09-11T14:53:43.801Z,47.90
2022-09-11T14:56:17.419Z,47.89
2022-09-11T14:58:46.873Z,47.91
2022-09-11T15:01:17.060Z,47.90
2022-09-11T15:03:47.680Z,47.71
2022-09-11T15:06:45.138Z,47.72
2022-09-11T15:09:14.114Z,47.78
2022-09-11T15:11:44.356Z,47.76
2022-09-11T15:14:32.137Z,47.56
2022-09-11T15:17:09.158Z,47.64
2022-09-11T15:19:41.686Z,47.29
2022-09-11T15:22:12.047Z,47.15
2022-09-11T15:24:41.472Z,47.16
2022-09-11T15:27:10.796Z,47.15
2022-09-11T15:29:43.126Z,47.15
2022-09-11T15:32:13.361Z,47.04
2022-09-11T15:34:45.741Z,47.14
2022-09-11T15:37:19.130Z,47.04
2022-09-11T15:39:51.258Z,47.08
2022-09-11T15:42:21.127Z,46.87
2022-09-11T15:44:52.624Z,46.83
2022-09-11T15:47:22.460Z,46.86
2022-09-11T15:49:51.906Z,46.96
2022-09-11T15:52:20.947Z,46.87
2022-09-11T15:54:51.576Z,47.15
2022-09-11T15:57:20.798Z,47.12
2022-09-11T15:59:54.264Z,47.11
2022-09-11T16:02:26.904Z,46.88
2022-09-11T16:04:56.725Z,46.92
2022-09-11T16:07:32.075Z,46.91
2022-09-11T16:10:01.201Z,47.03
2022-09-11T16:12:31.637Z,46.97
2022-09-11T16:15:02.069Z,46.87
2022-09-11T16:17:33.103Z,46.87
2022-09-11T16:20:02.872Z,46.95
2022-09-11T16:22:31.682Z,47.02
2022-09-11T16:25:02.595Z,47.05
2022-09-11T16:27:35.116Z,47.07
2022-09-11T16:32:54.923Z,47.05
2022-09-11T16:35:24.211Z,47.12
2022-09-11T16:37:55.244Z,47.14
2022-09-11T16:40:24.116Z,47.25
2022-09-11T16:42:55.686Z,47.27
2022-09-11T16:45:25.083Z,47.36
2022-09-11T16:47:57.546Z,47.42
2022-09-11T16:50:27.143Z,47.50
2022-09-11T16:52:55.927Z,47.59
2022-09-11T16:55:26.069Z,47.67
2022-09-11T16:57:55.509Z,47.53
2022-09-11T17:00:26.626Z,47.62
2022-09-11T17:02:56.652Z,47.75
2022-09-11T17:05:26.039Z,47.71
2022-09-11T17:07:56.284Z,48.04
2022-09-11T17:10:25.553Z,48.02
2022-09-11T17:12:57.839Z,48.03
2022-09-11T17:15:28.857Z,48.10
2022-09-11T17:17:58.151Z,48.26
2022-09-11T17:20:26.886Z,48.32
2022-09-11T17:22:58.202Z,48.44
2022-09-11T17:25:27.519Z,48.60
2022-09-11T17:27:56.754Z,48.65
2022-09-11T17:30:25.642Z,48.63
2022-09-11T17:32:55.006Z,48.69
2022-09-11T17:35:25.006Z,48.76
2022-09-11T17:37:57.600Z,48.92
2022-09-11T17:40:27.228Z,48.84
2022-09-11T17:42:58.238Z,49.14
2022-09-11T17:45:28.668Z,49.13
2022-09-11T17:47:58.312Z,49.26
2022-09-11T17:50:29.146Z,49.33
2022-09-11T17:52:59.208Z,49.32
2022-09-11T17:55:30.586Z,49.49
2022-09-11T17:58:00.071Z,49.56
2022-09-11T18:00:32.562Z,49.45
2022-09-11T18:03:02.670Z,49.70
2022-09-11T18:05:32.600Z,49.77
2022-09-11T18:08:03.861Z,49.80
2022-09-11T18:10:34.854Z,49.91
2022-09-11T18:13:03.912Z,50.07
2022-09-11T18:15:35.016Z,50.08
2022-09-11T18:18:05.734Z,49.92
2022-09-11T18:20:37.458Z,50.11
2022-09-11T18:23:06.640Z,50.08
2022-09-11T18:25:40.080Z,50.24
2022-09-11T18:28:10.024Z,50.36
2022-09-11T18:30:42.211Z,50.44
2022-09-11T18:33:14.268Z,50.59
2022-09-11T18:35:46.677Z,50.59
2022-09-11T18:38:17.517Z,50.69
2022-09-11T18:40:47.866Z,50.74
2022-09-11T18:43:17.466Z,50.96
2022-09-11T18:45:47.516Z,51.17
2022-09-11T18:48:17.406Z,51.22
2022-09-11T18:50:49.097Z,51.42
2022-09-11T18:53:18.476Z,51.36
2022-09-11T18:55:48.388Z,51.11
2022-09-11T18:58:17.847Z,51.49
2022-09-11T19:00:49.360Z,51.60
2022-09-11T19:03:23.396Z,51.96
2022-09-11T19:05:53.908Z,51.88
2022-09-11T19:08:23.138Z,52.08
2022-09-11T19:10:52.958Z,51.97
2022-09-11T19:13:26.424Z,52.12
2022-09-11T19:16:00.412Z,52.13
2022-09-11T19:18:30.438Z,52.37
2022-09-11T19:21:04.805Z,52.51
2022-09-11T19:23:36.040Z,52.49
2022-09-11T19:26:12.514Z,52.64
2022-09-11T19:28:44.047Z,52.78
2022-09-11T19:31:15.642Z,52.86
2022-09-11T19:33:46.138Z,53.01
2022-09-11T19:36:20.958Z,52.93
2022-09-11T19:38:53.361Z,53.04
2022-09-11T19:41:26.357Z,53.12
2022-09-11T19:43:55.661Z,53.33
2022-09-11T19:46:29.233Z,53.03
2022-09-11T19:49:00.968Z,53.18
2022-09-11T19:51:33.123Z,53.40
2022-09-11T19:54:04.662Z,53.41
2022-09-11T19:56:38.444Z,53.52
2022-09-11T19:59:10.762Z,53.78
2022-09-11T20:01:40.279Z,53.77
2022-09-11T20:04:14.119Z,53.71
2022-09-11T20:09:30.882Z,53.81
2022-09-11T20:12:02.148Z,53.96
2022-09-11T20:14:35.420Z,53.98
2022-09-11T20:17:08.795Z,54.17
2022-09-11T20:19:40.997Z,54.40
2022-09-11T20:22:12.062Z,54.42
2022-09-11T20:24:43.370Z,54.26
2022-09-11T20:27:12.149Z,54.36
2022-09-11T20:29:43.586Z,54.40
2022-09-11T20:32:13.517Z,54.73
2022-09-11T20:34:42.046Z,54.51
2022-09-11T20:37:13.961Z,54.33
2022-09-11T20:39:42.732Z,54.74
2022-09-11T20:42:14.568Z,54.96
2022-09-11T20:44:47.191Z,54.70
2022-09-11T20:47:18.691Z,54.90
2022-09-11T20:49:50.528Z,55.09
2022-09-11T20:52:19.337Z,54.83
2022-09-11T20:54:50.883Z,55.04
2022-09-11T20:57:19.957Z,55.20
2022-09-11T20:59:50.517Z,55.20
2022-09-11T21:02:19.525Z,55.35
2022-09-11T21:04:50.479Z,55.35
2022-09-11T21:07:21.333Z,55.50
2022-09-11T21:09:50.679Z,55.51
2022-09-11T21:12:20.184Z,55.65
2022-09-11T21:14:50.675Z,55.76
2022-09-11T21:17:21.271Z,55.84
2022-09-11T21:19:57.221Z,55.87
2022-09-11T21:22:27.428Z,55.99
2022-09-11T21:25:01.088Z,56.03
2022-09-11T21:27:32.487Z,56.01
2022-09-11T21:30:01.144Z,55.96
2022-09-11T21:32:30.798Z,56.30
2022-09-11T21:35:03.152Z,56.51
2022-09-11T21:37:32.909Z,56.37
2022-09-11T21:40:03.121Z,56.30
2022-09-11T21:42:32.469Z,56.44
2022-09-11T21:45:03.273Z,56.43
2022-09-11T21:47:32.051Z,56.65
2022-09-11T21:50:02.514Z,56.73
2022-09-11T21:52:31.515Z,56.93
2022-09-11T21:55:00.898Z,56.64
2022-09-11T21:57:31.641Z,56.94
2022-09-11T22:00:01.968Z,56.99
2022-09-11T22:02:31.395Z,57.00
2022-09-11T22:05:00.208Z,57.24
2022-09-11T22:07:56.570Z,56.99
2022-09-11T22:10:28.592Z,57.16
2022-09-11T22:12:57.253Z,57.05
2022-09-11T22:15:27.484Z,57.41
2022-09-11T22:17:56.139Z,57.54
2022-09-11T22:20:25.194Z,57.43
2022-09-11T22:22:56.790Z,57.49
2022-09-11T22:25:28.796Z,57.53
2022-09-11T22:27:57.579Z,57.58
2022-09-11T22:30:28.320Z,57.68
2022-09-11T22:32:59.579Z,57.78
2022-09-11T22:35:36.059Z,57.80
2022-09-11T22:38:06.802Z,57.70
2022-09-11T22:40:38.570Z,57.76
2022-09-11T22:43:08.642Z,57.83
2022-09-11T22:45:37.754Z,57.75
2022-09-11T22:48:09.907Z,58.00
2022-09-11T22:50:38.595Z,57.89
2022-09-11T22:53:09.105Z,58.02
2022-09-11T22:55:43.599Z,58.04
2022-09-11T22:58:14.038Z,58.11
2022-09-11T23:00:44.078Z,58.20
2022-09-11T23:03:15.869Z,58.20
2022-09-11T23:06:05.184Z,58.25
2022-09-11T23:08:45.650Z,58.28
2022-09-11T23:11:20.161Z,58.36
2022-09-11T23:13:52.766Z,58.57
2022-09-11T23:16:24.553Z,58.51
2022-09-11T23:19:01.989Z,58.65
2022-09-11T23:21:33.502Z,58.45
2022-09-11T23:24:03.055Z,58.71
2022-09-11T23:26:32.181Z,58.68
2022-09-11T23:29:01.971Z,58.70
2022-09-11T23:31:33.649Z,58.86
2022-09-11T23:34:07.333Z,58.79
2022-09-11T23:36:36.728Z,58.77
2022-09-11T23:39:07.187Z,58.84
2022-09-11T23:41:38.398Z,58.88
2022-09-11T23:44:07.826Z,59.00
2022-09-11T23:46:36.924Z,59.05
2022-09-11T23:49:07.218Z,59.19
2022-09-11T23:51:37.213Z,59.03
2022-09-11T23:54:07.622Z,59.16
2022-09-11T23:56:37.124Z,59.10
2022-09-11T23:59:07.518Z,59.34
